sensor_id;sensor_type;location;lat;lon;timestamp;pressure;altitude;pressure_sealevel;temperature;humidity
58757;BME280;44527;47.460;19.016;2023-02-21T00:03:12;100244.09;;;7.08;89.05
58757;BME280;44527;47.460;19.016;2023-02-21T00:06:34;100237.41;;;7.20;88.36
58757;BME280;44527;47.460;19.016;2023-02-21T00:09:55;100247.19;;;7.32;87.09
58757;BME280;44527;47.460;19.016;2023-02-21T00:13:16;100230.84;;;7.45;85.80
58757;BME280;44527;47.460;19.016;2023-02-21T00:16:36;100222.50;;;7.38;86.16
58757;BME280;44527;47.460;19.016;2023-02-21T00:19:58;100225.78;;;7.42;84.53
58757;BME280;44527;47.460;19.016;2023-02-21T00:23:19;100235.62;;;7.52;83.91
58757;BME280;44527;47.460;19.016;2023-02-21T00:26:41;100236.72;;;7.48;84.30
58757;BME280;44527;47.460;19.016;2023-02-21T00:30:02;100249.19;;;7.43;84.27
58757;BME280;44527;47.460;19.016;2023-02-21T00:33:24;100244.81;;;7.44;84.36
58757;BME280;44527;47.460;19.016;2023-02-21T00:36:46;100249.12;;;7.29;85.08
58757;BME280;44527;47.460;19.016;2023-02-21T00:40:11;100253.63;;;7.25;84.89
58757;BME280;44527;47.460;19.016;2023-02-21T00:43:34;100239.59;;;7.44;84.09
58757;BME280;44527;47.460;19.016;2023-02-21T00:46:56;100250.63;;;7.49;83.67
58757;BME280;44527;47.460;19.016;2023-02-21T00:50:17;100248.34;;;7.58;82.87
58757;BME280;44527;47.460;19.016;2023-02-21T00:53:38;100251.13;;;7.24;84.54
58757;BME280;44527;47.460;19.016;2023-02-21T00:56:59;100244.13;;;7.40;82.83
58757;BME280;44527;47.460;19.016;2023-02-21T01:00:22;100221.47;;;7.41;82.89
58757;BME280;44527;47.460;19.016;2023-02-21T01:03:44;100232.44;;;7.47;81.24
58757;BME280;44527;47.460;19.016;2023-02-21T01:07:06;100222.00;;;7.47;82.04
58757;BME280;44527;47.460;19.016;2023-02-21T01:10:27;100229.00;;;7.63;78.99
58757;BME280;44527;47.460;19.016;2023-02-21T01:13:48;100230.16;;;7.73;77.49
58757;BME280;44527;47.460;19.016;2023-02-21T01:17:08;100218.06;;;8.02;75.34
58757;BME280;44527;47.460;19.016;2023-02-21T01:20:32;100228.53;;;8.02;75.08
58757;BME280;44527;47.460;19.016;2023-02-21T01:23:52;100221.09;;;8.24;74.55
58757;BME280;44527;47.460;19.016;2023-02-21T01:27:14;100221.94;;;8.25;73.84
58757;BME280;44527;47.460;19.016;2023-02-21T01:30:34;100221.84;;;8.42;73.44
58757;BME280;44527;47.460;19.016;2023-02-21T01:33:55;100227.09;;;8.26;75.04
58757;BME280;44527;47.460;19.016;2023-02-21T01:37:16;100227.22;;;8.09;75.93
58757;BME280;44527;47.460;19.016;2023-02-21T01:40:38;100224.06;;;7.88;77.01
58757;BME280;44527;47.460;19.016;2023-02-21T01:44:05;100223.87;;;7.91;77.39
58757;BME280;44527;47.460;19.016;2023-02-21T01:47:28;100233.75;;;7.86;77.71
58757;BME280;44527;47.460;19.016;2023-02-21T01:50:49;100221.78;;;7.82;78.17
58757;BME280;44527;47.460;19.016;2023-02-21T01:54:12;100232.16;;;7.68;79.18
58757;BME280;44527;47.460;19.016;2023-02-21T01:57:34;100215.41;;;7.72;78.38
58757;BME280;44527;47.460;19.016;2023-02-21T02:00:56;100198.38;;;7.65;79.39
58757;BME280;44527;47.460;19.016;2023-02-21T02:04:18;100193.47;;;7.74;78.17
58757;BME280;44527;47.460;19.016;2023-02-21T02:07:39;100191.69;;;7.45;79.60
58757;BME280;44527;47.460;19.016;2023-02-21T02:18:55;100194.34;;;7.43;80.10
58757;BME280;44527;47.460;19.016;2023-02-21T02:22:25;100192.34;;;7.48;79.59
58757;BME280;44527;47.460;19.016;2023-02-21T02:42:14;100183.97;;;7.10;81.17
58757;BME280;44527;47.460;19.016;2023-02-21T02:45:37;100164.22;;;7.22;80.15
58757;BME280;44527;47.460;19.016;2023-02-21T02:49:03;100154.88;;;7.18;80.44
58757;BME280;44527;47.460;19.016;2023-02-21T02:52:08;100162.09;;;6.97;80.85
58757;BME280;44527;47.460;19.016;2023-02-21T02:55:38;100137.09;;;6.93;81.05
58757;BME280;44527;47.460;19.016;2023-02-21T03:05:07;100146.28;;;7.16;77.84
58757;BME280;44527;47.460;19.016;2023-02-21T03:08:22;100147.38;;;7.11;78.25
58757;BME280;44527;47.460;19.016;2023-02-21T03:11:30;100146.03;;;7.04;78.48
58757;BME280;44527;47.460;19.016;2023-02-21T03:14:40;100150.00;;;7.11;78.14
58757;BME280;44527;47.460;19.016;2023-02-21T03:17:56;100153.66;;;6.91;79.17
58757;BME280;44527;47.460;19.016;2023-02-21T03:21:05;100146.72;;;6.92;79.67
58757;BME280;44527;47.460;19.016;2023-02-21T03:24:10;100160.25;;;6.83;79.73
58757;BME280;44527;47.460;19.016;2023-02-21T03:27:16;100153.81;;;6.73;80.29
58757;BME280;44527;47.460;19.016;2023-02-21T03:30:19;100149.37;;;6.90;79.60
58757;BME280;44527;47.460;19.016;2023-02-21T03:33:23;100158.87;;;6.91;78.63
58757;BME280;44527;47.460;19.016;2023-02-21T03:36:26;100150.81;;;7.12;78.22
58757;BME280;44527;47.460;19.016;2023-02-21T03:39:29;100152.81;;;7.54;75.90
58757;BME280;44527;47.460;19.016;2023-02-21T03:42:32;100154.91;;;7.64;76.03
58757;BME280;44527;47.460;19.016;2023-02-21T03:45:35;100161.16;;;7.61;75.71
58757;BME280;44527;47.460;19.016;2023-02-21T03:48:38;100148.59;;;7.98;73.28
58757;BME280;44527;47.460;19.016;2023-02-21T03:51:42;100159.19;;;8.25;72.21
58757;BME280;44527;47.460;19.016;2023-02-21T03:54:45;100158.06;;;8.29;71.83
58757;BME280;44527;47.460;19.016;2023-02-21T03:57:48;100156.00;;;8.20;72.62
58757;BME280;44527;47.460;19.016;2023-02-21T04:00:52;100158.78;;;8.02;73.39
58757;BME280;44527;47.460;19.016;2023-02-21T04:03:56;100160.06;;;7.95;73.77
58757;BME280;44527;47.460;19.016;2023-02-21T04:06:58;100170.66;;;7.78;74.66
58757;BME280;44527;47.460;19.016;2023-02-21T04:10:02;100159.25;;;7.79;74.66
58757;BME280;44527;47.460;19.016;2023-02-21T04:13:06;100147.22;;;7.76;73.85
58757;BME280;44527;47.460;19.016;2023-02-21T04:16:10;100151.81;;;8.17;71.66
58757;BME280;44527;47.460;19.016;2023-02-21T04:19:13;100148.91;;;8.22;71.70
58757;BME280;44527;47.460;19.016;2023-02-21T04:22:16;100147.94;;;8.53;69.99
58757;BME280;44527;47.460;19.016;2023-02-21T04:25:19;100152.06;;;8.71;69.40
58757;BME280;44527;47.460;19.016;2023-02-21T04:28:22;100145.81;;;8.74;69.05
58757;BME280;44527;47.460;19.016;2023-02-21T04:31:25;100146.38;;;8.79;68.67
58757;BME280;44527;47.460;19.016;2023-02-21T04:34:28;100129.16;;;8.89;68.43
58757;BME280;44527;47.460;19.016;2023-02-21T04:37:30;100153.00;;;8.85;69.04
58757;BME280;44527;47.460;19.016;2023-02-21T04:40:33;100156.00;;;8.79;69.10
58757;BME280;44527;47.460;19.016;2023-02-21T04:43:36;100150.19;;;8.88;68.27
58757;BME280;44527;47.460;19.016;2023-02-21T04:46:39;100165.13;;;9.00;68.21
58757;BME280;44527;47.460;19.016;2023-02-21T04:49:42;100153.16;;;8.96;67.82
58757;BME280;44527;47.460;19.016;2023-02-21T04:52:46;100166.81;;;9.01;67.78
58757;BME280;44527;47.460;19.016;2023-02-21T04:55:48;100151.84;;;9.03;67.86
58757;BME280;44527;47.460;19.016;2023-02-21T04:58:51;100154.53;;;9.16;66.93
58757;BME280;44527;47.460;19.016;2023-02-21T05:01:53;100168.94;;;9.09;67.38
58757;BME280;44527;47.460;19.016;2023-02-21T05:04:56;100180.91;;;9.13;67.15
58757;BME280;44527;47.460;19.016;2023-02-21T05:07:58;100178.44;;;9.24;66.51
58757;BME280;44527;47.460;19.016;2023-02-21T05:11:01;100169.75;;;9.24;66.38
58757;BME280;44527;47.460;19.016;2023-02-21T05:14:04;100173.13;;;9.11;67.30
58757;BME280;44527;47.460;19.016;2023-02-21T05:17:06;100174.56;;;9.03;67.48
58757;BME280;44527;47.460;19.016;2023-02-21T05:20:09;100172.81;;;9.03;67.59
58757;BME280;44527;47.460;19.016;2023-02-21T05:23:13;100184.62;;;9.23;66.23
58757;BME280;44527;47.460;19.016;2023-02-21T05:26:18;100188.59;;;9.16;66.94
58757;BME280;44527;47.460;19.016;2023-02-21T05:29:20;100177.28;;;9.01;67.46
58757;BME280;44527;47.460;19.016;2023-02-21T05:32:22;100192.03;;;9.16;66.38
58757;BME280;44527;47.460;19.016;2023-02-21T05:35:25;100180.16;;;9.11;66.82
58757;BME280;44527;47.460;19.016;2023-02-21T05:38:28;100181.75;;;8.99;67.34
58757;BME280;44527;47.460;19.016;2023-02-21T05:41:31;100187.00;;;9.13;67.66
58757;BME280;44527;47.460;19.016;2023-02-21T05:44:34;100163.31;;;9.15;66.73
58757;BME280;44527;47.460;19.016;2023-02-21T05:47:36;100151.16;;;9.14;66.75
58757;BME280;44527;47.460;19.016;2023-02-21T05:50:39;100152.94;;;9.28;66.26
58757;BME280;44527;47.460;19.016;2023-02-21T05:53:41;100157.66;;;9.35;66.11
58757;BME280;44527;47.460;19.016;2023-02-21T05:56:45;100145.13;;;9.40;66.13
58757;BME280;44527;47.460;19.016;2023-02-21T05:59:48;100156.78;;;9.49;65.49
58757;BME280;44527;47.460;19.016;2023-02-21T06:02:50;100177.16;;;9.58;65.22
58757;BME280;44527;47.460;19.016;2023-02-21T06:05:54;100175.81;;;9.65;65.94
58757;BME280;44527;47.460;19.016;2023-02-21T06:08:56;100177.19;;;9.71;65.15
58757;BME280;44527;47.460;19.016;2023-02-21T06:11:59;100171.00;;;9.72;65.17
58757;BME280;44527;47.460;19.016;2023-02-21T06:15:02;100179.28;;;9.66;65.51
58757;BME280;44527;47.460;19.016;2023-02-21T06:18:11;100171.53;;;9.64;65.76
58757;BME280;44527;47.460;19.016;2023-02-21T06:21:14;100167.56;;;9.72;65.51
58757;BME280;44527;47.460;19.016;2023-02-21T06:24:17;100172.47;;;9.76;65.35
58757;BME280;44527;47.460;19.016;2023-02-21T06:27:20;100166.34;;;9.90;64.98
58757;BME280;44527;47.460;19.016;2023-02-21T06:30:23;100172.25;;;10.06;64.48
58757;BME280;44527;47.460;19.016;2023-02-21T06:33:26;100172.84;;;10.37;63.30
58757;BME280;44527;47.460;19.016;2023-02-21T06:36:29;100172.00;;;10.49;63.00
58757;BME280;44527;47.460;19.016;2023-02-21T06:39:31;100176.09;;;10.66;62.66
58757;BME280;44527;47.460;19.016;2023-02-21T06:42:33;100187.62;;;11.02;61.69
58757;BME280;44527;47.460;19.016;2023-02-21T06:45:37;100182.09;;;11.31;60.48
58757;BME280;44527;47.460;19.016;2023-02-21T06:48:40;100194.41;;;11.54;66.00
58757;BME280;44527;47.460;19.016;2023-02-21T06:51:42;100206.09;;;12.33;58.85
58757;BME280;44527;47.460;19.016;2023-02-21T06:54:45;100190.13;;;12.59;62.21
58757;BME280;44527;47.460;19.016;2023-02-21T06:57:47;100204.59;;;12.53;59.45
58757;BME280;44527;47.460;19.016;2023-02-21T07:00:50;100195.16;;;12.84;56.56
58757;BME280;44527;47.460;19.016;2023-02-21T07:03:53;100202.09;;;12.85;56.33
58757;BME280;44527;47.460;19.016;2023-02-21T07:06:56;100201.28;;;12.96;57.43
58757;BME280;44527;47.460;19.016;2023-02-21T07:09:58;100198.50;;;13.43;55.18
58757;BME280;44527;47.460;19.016;2023-02-21T07:13:01;100197.41;;;13.89;52.73
58757;BME280;44527;47.460;19.016;2023-02-21T07:16:03;100208.62;;;14.55;54.09
58757;BME280;44527;47.460;19.016;2023-02-21T07:19:06;100208.75;;;14.84;50.33
58757;BME280;44527;47.460;19.016;2023-02-21T07:22:09;100223.72;;;14.74;50.19
58757;BME280;44527;47.460;19.016;2023-02-21T07:25:16;100214.91;;;14.43;50.97
58757;BME280;44527;47.460;19.016;2023-02-21T07:28:19;100214.19;;;13.88;52.25
58757;BME280;44527;47.460;19.016;2023-02-21T07:31:22;100212.50;;;13.43;53.32
58757;BME280;44527;47.460;19.016;2023-02-21T07:34:24;100213.84;;;13.04;54.42
58757;BME280;44527;47.460;19.016;2023-02-21T07:37:27;100223.53;;;13.37;53.87
58757;BME280;44527;47.460;19.016;2023-02-21T07:40:29;100211.69;;;13.86;60.65
58757;BME280;44527;47.460;19.016;2023-02-21T07:43:32;100226.84;;;13.73;53.67
58757;BME280;44527;47.460;19.016;2023-02-21T07:46:34;100220.56;;;13.85;55.39
58757;BME280;44527;47.460;19.016;2023-02-21T07:49:38;100225.50;;;13.35;53.29
58757;BME280;44527;47.460;19.016;2023-02-21T07:52:41;100215.75;;;12.68;55.15
58757;BME280;44527;47.460;19.016;2023-02-21T07:55:43;100221.13;;;12.67;55.60
58757;BME280;44527;47.460;19.016;2023-02-21T07:58:45;100215.16;;;12.76;55.51
58757;BME280;44527;47.460;19.016;2023-02-21T08:01:48;100213.47;;;12.75;55.02
58757;BME280;44527;47.460;19.016;2023-02-21T08:04:51;100209.41;;;12.59;56.15
58757;BME280;44527;47.460;19.016;2023-02-21T08:07:54;100211.41;;;12.67;55.55
58757;BME280;44527;47.460;19.016;2023-02-21T08:10:57;100215.00;;;12.55;55.61
58757;BME280;44527;47.460;19.016;2023-02-21T08:13:59;100212.84;;;12.60;55.91
58757;BME280;44527;47.460;19.016;2023-02-21T08:17:02;100208.19;;;12.63;55.48
58757;BME280;44527;47.460;19.016;2023-02-21T08:20:04;100227.34;;;12.65;55.96
58757;BME280;44527;47.460;19.016;2023-02-21T08:23:10;100216.81;;;12.65;56.42
58757;BME280;44527;47.460;19.016;2023-02-21T08:26:12;100224.13;;;12.73;56.43
58757;BME280;44527;47.460;19.016;2023-02-21T08:29:15;100226.75;;;12.62;56.52
58757;BME280;44527;47.460;19.016;2023-02-21T08:32:19;100224.84;;;12.75;56.71
58757;BME280;44527;47.460;19.016;2023-02-21T08:35:22;100228.81;;;12.81;56.64
58757;BME280;44527;47.460;19.016;2023-02-21T08:38:24;100216.97;;;12.86;56.40
58757;BME280;44527;47.460;19.016;2023-02-21T08:41:42;100218.75;;;12.75;56.12
58757;BME280;44527;47.460;19.016;2023-02-21T08:44:45;100220.78;;;12.71;57.65
58757;BME280;44527;47.460;19.016;2023-02-21T08:47:49;100220.44;;;12.87;56.36
58757;BME280;44527;47.460;19.016;2023-02-21T08:50:52;100222.47;;;12.95;56.48
58757;BME280;44527;47.460;19.016;2023-02-21T08:53:56;100217.78;;;12.76;56.81
58757;BME280;44527;47.460;19.016;2023-02-21T08:57:00;100213.22;;;12.67;57.76
58757;BME280;44527;47.460;19.016;2023-02-21T09:00:05;100205.09;;;12.70;58.16
58757;BME280;44527;47.460;19.016;2023-02-21T09:03:11;100210.37;;;12.81;57.47
58757;BME280;44527;47.460;19.016;2023-02-21T09:06:14;100193.13;;;12.88;57.97
58757;BME280;44527;47.460;19.016;2023-02-21T09:09:17;100199.38;;;12.98;57.87
58757;BME280;44527;47.460;19.016;2023-02-21T09:12:19;100199.25;;;13.11;57.50
58757;BME280;44527;47.460;19.016;2023-02-21T09:15:21;100215.28;;;13.19;57.65
58757;BME280;44527;47.460;19.016;2023-02-21T09:18:24;100197.44;;;13.23;57.78
58757;BME280;44527;47.460;19.016;2023-02-21T09:21:27;100192.78;;;13.26;57.15
58757;BME280;44527;47.460;19.016;2023-02-21T09:24:30;100189.06;;;13.29;57.18
58757;BME280;44527;47.460;19.016;2023-02-21T09:27:32;100203.44;;;13.25;57.77
58757;BME280;44527;47.460;19.016;2023-02-21T09:30:38;100207.28;;;13.32;57.05
58757;BME280;44527;47.460;19.016;2023-02-21T09:33:40;100187.62;;;13.36;56.49
58757;BME280;44527;47.460;19.016;2023-02-21T09:36:43;100192.87;;;13.36;56.89
58757;BME280;44527;47.460;19.016;2023-02-21T09:39:45;100193.28;;;13.31;56.68
58757;BME280;44527;47.460;19.016;2023-02-21T09:42:52;100196.97;;;13.29;57.04
58757;BME280;44527;47.460;19.016;2023-02-21T09:45:58;100200.53;;;13.50;56.89
58757;BME280;44527;47.460;19.016;2023-02-21T09:49:05;100209.28;;;13.51;56.99
58757;BME280;44527;47.460;19.016;2023-02-21T09:52:31;100210.84;;;13.53;56.52
58757;BME280;44527;47.460;19.016;2023-02-21T09:55:38;100204.50;;;13.33;57.50
58757;BME280;44527;47.460;19.016;2023-02-21T09:58:42;100206.94;;;13.25;58.08
58757;BME280;44527;47.460;19.016;2023-02-21T10:05:32;100198.56;;;13.64;57.40
58757;BME280;44527;47.460;19.016;2023-02-21T10:08:53;100196.97;;;13.84;57.40
58757;BME280;44527;47.460;19.016;2023-02-21T10:15:36;100202.56;;;13.90;56.91
58757;BME280;44527;47.460;19.016;2023-02-21T10:21:45;100206.50;;;13.96;57.61
58757;BME280;44527;47.460;19.016;2023-02-21T10:24:51;100195.88;;;14.07;56.67
58757;BME280;44527;47.460;19.016;2023-02-21T10:27:54;100189.50;;;14.10;57.27
58757;BME280;44527;47.460;19.016;2023-02-21T10:31:00;100198.44;;;13.97;57.03
58757;BME280;44527;47.460;19.016;2023-02-21T10:34:08;100184.03;;;13.81;57.34
58757;BME280;44527;47.460;19.016;2023-02-21T10:40:35;100192.78;;;13.70;57.72
58757;BME280;44527;47.460;19.016;2023-02-21T10:43:44;100188.59;;;13.67;58.39
58757;BME280;44527;47.460;19.016;2023-02-21T10:46:57;100194.09;;;13.75;57.89
58757;BME280;44527;47.460;19.016;2023-02-21T10:50:06;100194.19;;;13.85;57.33
58757;BME280;44527;47.460;19.016;2023-02-21T10:53:26;100180.63;;;13.90;57.62
58757;BME280;44527;47.460;19.016;2023-02-21T10:56:29;100183.69;;;13.95;57.51
58757;BME280;44527;47.460;19.016;2023-02-21T10:59:35;100176.37;;;13.77;58.33
58757;BME280;44527;47.460;19.016;2023-02-21T11:02:43;100179.25;;;13.74;58.18
58757;BME280;44527;47.460;19.016;2023-02-21T11:05:50;100191.75;;;13.93;58.51
58757;BME280;44527;47.460;19.016;2023-02-21T11:08:53;100187.56;;;13.91;57.84
58757;BME280;44527;47.460;19.016;2023-02-21T11:15:17;100190.09;;;14.13;57.52
58757;BME280;44527;47.460;19.016;2023-02-21T11:18:24;100179.81;;;14.31;57.38
58757;BME280;44527;47.460;19.016;2023-02-21T11:21:27;100190.88;;;14.25;56.88
58757;BME280;44527;47.460;19.016;2023-02-21T11:24:29;100177.47;;;14.17;56.89
58757;BME280;44527;47.460;19.016;2023-02-21T11:27:34;100158.56;;;14.33;57.08
58757;BME280;44527;47.460;19.016;2023-02-21T11:30:39;100165.19;;;14.27;57.19
58757;BME280;44527;47.460;19.016;2023-02-21T11:33:56;100155.31;;;14.29;57.29
58757;BME280;44527;47.460;19.016;2023-02-21T11:37:03;100165.25;;;14.37;56.07
58757;BME280;44527;47.460;19.016;2023-02-21T11:40:21;100149.34;;;14.27;56.51
58757;BME280;44527;47.460;19.016;2023-02-21T11:43:28;100152.44;;;14.32;57.25
58757;BME280;44527;47.460;19.016;2023-02-21T11:46:45;100146.31;;;14.32;57.28
58757;BME280;44527;47.460;19.016;2023-02-21T11:56:18;100155.06;;;14.32;57.48
58757;BME280;44527;47.460;19.016;2023-02-21T12:00:10;100148.84;;;14.33;58.41
58757;BME280;44527;47.460;19.016;2023-02-21T12:27:16;100152.25;;;14.24;58.88
58757;BME280;44527;47.460;19.016;2023-02-21T12:37:19;100144.75;;;14.29;59.51
58757;BME280;44527;47.460;19.016;2023-02-21T12:43:48;100139.84;;;14.15;59.89
58757;BME280;44527;47.460;19.016;2023-02-21T12:47:02;100142.78;;;14.21;60.34
58757;BME280;44527;47.460;19.016;2023-02-21T12:50:28;100146.41;;;14.20;60.19
58757;BME280;44527;47.460;19.016;2023-02-21T12:59:58;100146.75;;;13.95;59.66
58757;BME280;44527;47.460;19.016;2023-02-21T13:06:54;100141.16;;;13.88;60.65
58757;BME280;44527;47.460;19.016;2023-02-21T13:10:18;100144.31;;;13.82;60.91
58757;BME280;44527;47.460;19.016;2023-02-21T13:13:26;100147.22;;;14.00;61.09
58757;BME280;44527;47.460;19.016;2023-02-21T13:16:30;100146.78;;;14.16;60.42
58757;BME280;44527;47.460;19.016;2023-02-21T13:19:40;100145.94;;;14.15;59.75
58757;BME280;44527;47.460;19.016;2023-02-21T13:26:28;100146.00;;;14.04;60.65
58757;BME280;44527;47.460;19.016;2023-02-21T13:29:36;100148.78;;;14.02;59.94
58757;BME280;44527;47.460;19.016;2023-02-21T13:32:49;100150.69;;;14.00;61.22
58757;BME280;44527;47.460;19.016;2023-02-21T13:35:56;100139.56;;;14.18;60.40
58757;BME280;44527;47.460;19.016;2023-02-21T13:42:18;100140.47;;;14.07;61.08
58757;BME280;44527;47.460;19.016;2023-02-21T13:45:24;100144.84;;;13.97;61.04
58757;BME280;44527;47.460;19.016;2023-02-21T13:48:28;100136.09;;;13.96;61.30
58757;BME280;44527;47.460;19.016;2023-02-21T13:51:50;100137.50;;;14.00;60.82
58757;BME280;44527;47.460;19.016;2023-02-21T13:58:44;100136.72;;;13.89;60.84
58757;BME280;44527;47.460;19.016;2023-02-21T14:01:48;100132.59;;;13.75;61.06
58757;BME280;44527;47.460;19.016;2023-02-21T14:08:03;100124.63;;;13.65;61.44
58757;BME280;44527;47.460;19.016;2023-02-21T14:11:23;100136.16;;;13.53;61.65
58757;BME280;44527;47.460;19.016;2023-02-21T14:14:34;100131.16;;;13.50;62.11
58757;BME280;44527;47.460;19.016;2023-02-21T14:17:39;100134.72;;;13.49;62.40
58757;BME280;44527;47.460;19.016;2023-02-21T14:20:41;100130.66;;;13.56;62.42
58757;BME280;44527;47.460;19.016;2023-02-21T14:23:51;100138.75;;;13.64;61.83
58757;BME280;44527;47.460;19.016;2023-02-21T14:26:56;100135.75;;;13.69;61.55
58757;BME280;44527;47.460;19.016;2023-02-21T14:33:21;100127.94;;;13.67;61.72
58757;BME280;44527;47.460;19.016;2023-02-21T14:36:27;100129.78;;;13.55;61.77
58757;BME280;44527;47.460;19.016;2023-02-21T14:39:37;100135.31;;;13.52;61.36
58757;BME280;44527;47.460;19.016;2023-02-21T14:46:54;100131.44;;;13.36;61.97
58757;BME280;44527;47.460;19.016;2023-02-21T15:04:03;100138.41;;;13.25;62.91
58757;BME280;44527;47.460;19.016;2023-02-21T15:07:18;100138.16;;;13.17;63.38
58757;BME280;44527;47.460;19.016;2023-02-21T15:10:26;100138.87;;;13.08;63.02
58757;BME280;44527;47.460;19.016;2023-02-21T15:13:34;100140.06;;;13.04;63.38
58757;BME280;44527;47.460;19.016;2023-02-21T15:17:00;100139.47;;;13.00;63.80
58757;BME280;44527;47.460;19.016;2023-02-21T15:20:05;100142.97;;;12.90;64.25
58757;BME280;44527;47.460;19.016;2023-02-21T15:26:22;100145.84;;;12.75;63.98
58757;BME280;44527;47.460;19.016;2023-02-21T15:29:28;100142.88;;;12.80;63.70
58757;BME280;44527;47.460;19.016;2023-02-21T15:32:30;100142.72;;;12.70;64.10
58757;BME280;44527;47.460;19.016;2023-02-21T15:35:37;100138.91;;;12.74;64.01
58757;BME280;44527;47.460;19.016;2023-02-21T15:41:49;100139.03;;;12.61;64.17
58757;BME280;44527;47.460;19.016;2023-02-21T15:44:58;100141.66;;;12.61;64.36
58757;BME280;44527;47.460;19.016;2023-02-21T15:48:04;100145.34;;;12.48;64.87
58757;BME280;44527;47.460;19.016;2023-02-21T15:51:08;100143.94;;;12.44;64.76
58757;BME280;44527;47.460;19.016;2023-02-21T15:54:22;100144.28;;;12.28;65.46
58757;BME280;44527;47.460;19.016;2023-02-21T15:57:28;100160.16;;;12.26;66.28
58757;BME280;44527;47.460;19.016;2023-02-21T16:00:35;100164.09;;;12.21;65.62
58757;BME280;44527;47.460;19.016;2023-02-21T16:03:39;100171.75;;;12.12;66.34
58757;BME280;44527;47.460;19.016;2023-02-21T16:06:48;100174.12;;;12.15;66.09
58757;BME280;44527;47.460;19.016;2023-02-21T16:09:59;100177.28;;;11.96;66.61
58757;BME280;44527;47.460;19.016;2023-02-21T16:13:02;100175.44;;;12.10;66.02
58757;BME280;44527;47.460;19.016;2023-02-21T16:16:07;100180.28;;;11.92;66.69
58757;BME280;44527;47.460;19.016;2023-02-21T16:19:10;100182.06;;;11.91;66.43
58757;BME280;44527;47.460;19.016;2023-02-21T16:22:37;100180.72;;;11.86;66.62
58757;BME280;44527;47.460;19.016;2023-02-21T16:29:10;100194.69;;;11.62;67.53
58757;BME280;44527;47.460;19.016;2023-02-21T16:32:16;100192.87;;;11.63;67.50
58757;BME280;44527;47.460;19.016;2023-02-21T16:35:22;100190.91;;;11.54;67.81
58757;BME280;44527;47.460;19.016;2023-02-21T16:38:25;100186.47;;;11.43;68.48
58757;BME280;44527;47.460;19.016;2023-02-21T16:41:28;100198.59;;;11.33;69.34
58757;BME280;44527;47.460;19.016;2023-02-21T16:44:31;100201.44;;;11.30;69.26
58757;BME280;44527;47.460;19.016;2023-02-21T16:47:34;100209.53;;;11.50;69.74
58757;BME280;44527;47.460;19.016;2023-02-21T16:50:38;100190.31;;;11.50;68.83
58757;BME280;44527;47.460;19.016;2023-02-21T16:53:41;100203.66;;;11.47;69.02
58757;BME280;44527;47.460;19.016;2023-02-21T16:56:46;100206.22;;;11.48;68.89
58757;BME280;44527;47.460;19.016;2023-02-21T16:59:49;100207.03;;;11.49;69.19
58757;BME280;44527;47.460;19.016;2023-02-21T17:02:52;100203.78;;;11.45;69.88
58757;BME280;44527;47.460;19.016;2023-02-21T17:05:56;100203.66;;;11.47;69.44
58757;BME280;44527;47.460;19.016;2023-02-21T17:08:59;100214.00;;;11.37;69.55
58757;BME280;44527;47.460;19.016;2023-02-21T17:12:02;100219.19;;;11.26;69.68
58757;BME280;44527;47.460;19.016;2023-02-21T17:15:05;100211.72;;;11.20;69.96
58757;BME280;44527;47.460;19.016;2023-02-21T17:18:08;100217.09;;;11.18;70.33
58757;BME280;44527;47.460;19.016;2023-02-21T17:21:10;100224.78;;;11.21;70.35
58757;BME280;44527;47.460;19.016;2023-02-21T17:24:14;100229.41;;;11.18;70.53
58757;BME280;44527;47.460;19.016;2023-02-21T17:27:17;100228.34;;;11.20;70.69
58757;BME280;44527;47.460;19.016;2023-02-21T17:30:21;100225.28;;;11.26;71.16
58757;BME280;44527;47.460;19.016;2023-02-21T17:33:25;100232.84;;;11.31;70.62
58757;BME280;44527;47.460;19.016;2023-02-21T17:36:28;100232.31;;;11.39;70.07
58757;BME280;44527;47.460;19.016;2023-02-21T17:39:31;100224.44;;;11.39;70.10
58757;BME280;44527;47.460;19.016;2023-02-21T17:42:33;100224.91;;;11.44;69.62
58757;BME280;44527;47.460;19.016;2023-02-21T17:45:35;100231.09;;;11.56;69.28
58757;BME280;44527;47.460;19.016;2023-02-21T17:48:40;100218.91;;;11.55;69.55
58757;BME280;44527;47.460;19.016;2023-02-21T17:51:43;100220.91;;;11.51;69.51
58757;BME280;44527;47.460;19.016;2023-02-21T17:54:45;100230.16;;;11.44;70.87
58757;BME280;44527;47.460;19.016;2023-02-21T17:57:48;100230.81;;;11.35;70.92
58757;BME280;44527;47.460;19.016;2023-02-21T18:00:50;100234.63;;;11.31;70.61
58757;BME280;44527;47.460;19.016;2023-02-21T18:03:53;100234.00;;;11.27;71.17
58757;BME280;44527;47.460;19.016;2023-02-21T18:06:56;100226.75;;;11.31;70.98
58757;BME280;44527;47.460;19.016;2023-02-21T18:10:00;100226.75;;;11.31;70.82
58757;BME280;44527;47.460;19.016;2023-02-21T18:13:04;100230.13;;;11.33;70.89
58757;BME280;44527;47.460;19.016;2023-02-21T18:16:07;100217.81;;;11.33;71.03
58757;BME280;44527;47.460;19.016;2023-02-21T18:19:09;100215.28;;;11.32;71.04
58757;BME280;44527;47.460;19.016;2023-02-21T18:22:13;100215.22;;;11.20;71.64
58757;BME280;44527;47.460;19.016;2023-02-21T18:25:17;100215.97;;;11.10;72.51
58757;BME280;44527;47.460;19.016;2023-02-21T18:28:19;100226.50;;;10.97;72.85
58757;BME280;44527;47.460;19.016;2023-02-21T18:31:22;100216.31;;;10.79;73.35
58757;BME280;44527;47.460;19.016;2023-02-21T18:34:24;100219.16;;;10.64;73.72
58757;BME280;44527;47.460;19.016;2023-02-21T18:37:27;100219.22;;;10.49;74.78